createdAt,value
2023-03-15T00:02:09.781Z,350.88
2023-03-15T00:06:11.990Z,345.20
2023-03-15T00:10:13.732Z,336.63
2023-03-15T00:14:15.839Z,331.58
2023-03-15T00:18:19.651Z,306.50
2023-03-15T00:22:23.390Z,302.88
2023-03-15T00:26:25.234Z,288.30
2023-03-15T00:30:27.479Z,278.63
2023-03-15T00:34:29.168Z,269.73
2023-03-15T00:43:05.809Z,261.23
2023-03-15T00:47:07.636Z,237.18
2023-03-15T00:51:15.085Z,467.40
2023-03-15T00:55:19.932Z,628.30
2023-03-15T00:59:23.271Z,537.88
2023-03-15T01:03:25.087Z,510.45
2023-03-15T01:07:26.908Z,495.05
2023-03-15T01:11:28.692Z,475.33
2023-03-15T01:15:31.373Z,455.60
2023-03-15T01:19:33.913Z,442.30
2023-03-15T01:23:35.776Z,427.90
2023-03-15T01:27:37.583Z,418.80
2023-03-15T01:31:39.844Z,401.35
2023-03-15T01:35:41.679Z,405.63
2023-03-15T01:39:43.630Z,486.70
2023-03-15T01:43:47.491Z,609.10
2023-03-15T01:47:50.214Z,606.63
2023-03-15T01:51:58.101Z,556.53
2023-03-15T01:56:04.316Z,550.67
2023-03-15T02:00:14.000Z,535.67
2023-03-15T02:04:48.948Z,535.17
2023-03-15T02:13:22.894Z,495.20
2023-03-15T02:17:33.494Z,493.60
2023-03-15T02:22:01.996Z,477.23
2023-03-15T02:26:29.849Z,444.80
2023-03-15T02:30:34.066Z,444.45
2023-03-15T02:34:37.796Z,428.02
2023-03-15T02:38:39.535Z,416.02
2023-03-15T02:42:42.596Z,413.20
2023-03-15T02:46:46.836Z,399.73
2023-03-15T02:50:48.619Z,377.83
2023-03-15T02:54:50.447Z,371.00
2023-03-15T02:58:52.237Z,364.23
2023-03-15T03:02:54.642Z,362.55
2023-03-15T03:06:56.377Z,344.58
2023-03-15T03:15:07.551Z,333.48
2023-03-15T03:19:15.248Z,321.63
2023-03-15T03:23:18.368Z,312.88
2023-03-15T03:27:20.065Z,323.13
2023-03-15T03:31:25.337Z,307.83
2023-03-15T03:35:28.529Z,293.45
2023-03-15T03:39:31.061Z,286.48
2023-03-15T03:43:35.735Z,274.67
2023-03-15T03:47:37.771Z,269.83
2023-03-15T03:51:39.577Z,257.95
2023-03-15T03:55:42.823Z,245.98
2023-03-15T03:59:44.910Z,257.90
2023-03-15T04:03:46.776Z,243.65
2023-03-15T04:07:51.695Z,228.95
2023-03-15T04:11:54.019Z,229.43
2023-03-15T04:15:57.897Z,229.45
2023-03-15T04:20:07.336Z,210.60
2023-03-15T04:24:11.963Z,213.00
2023-03-15T04:28:32.968Z,196.50
2023-03-15T04:32:44.931Z,203.98
2023-03-15T04:36:58.470Z,193.10
2023-03-15T04:41:27.108Z,190.07
2023-03-15T04:45:37.125Z,182.88
2023-03-15T04:49:56.285Z,176.13
2023-03-15T04:54:16.698Z,173.85
2023-03-15T04:58:31.333Z,162.52
2023-03-15T05:03:08.386Z,160.52
2023-03-15T05:07:34.481Z,156.10
2023-03-15T05:11:47.739Z,154.80
2023-03-15T05:16:09.056Z,148.10
2023-03-15T05:20:35.592Z,144.23
2023-03-15T05:24:55.816Z,137.02
2023-03-15T05:29:24.419Z,134.23
2023-03-15T05:33:49.022Z,127.72
2023-03-15T05:38:27.029Z,126.57
2023-03-15T05:42:47.672Z,119.18
2023-03-15T05:46:58.356Z,120.50
2023-03-15T05:51:29.465Z,117.35
2023-03-15T05:55:49.033Z,115.63
2023-03-15T06:00:06.933Z,112.00
2023-03-15T06:04:26.258Z,107.03
2023-03-15T06:08:30.525Z,104.95
2023-03-15T06:12:32.376Z,106.20
2023-03-15T06:16:34.833Z,96.75
2023-03-15T06:20:38.779Z,89.20
2023-03-15T06:24:45.015Z,91.57
2023-03-15T06:28:48.570Z,92.38
2023-03-15T06:32:51.182Z,83.57
2023-03-15T06:36:54.214Z,86.53
2023-03-15T06:40:56.474Z,84.10
2023-03-15T06:44:58.776Z,79.85
2023-03-15T06:49:01.196Z,73.72
2023-03-15T06:53:03.060Z,73.85
2023-03-15T06:57:04.968Z,71.95
2023-03-15T07:01:06.779Z,73.57
2023-03-15T07:05:09.180Z,70.47
2023-03-15T07:09:10.906Z,67.63
2023-03-15T07:13:13.383Z,64.57
2023-03-15T07:17:15.611Z,66.65
2023-03-15T07:21:17.411Z,62.60
2023-03-15T07:25:24.034Z,61.60
2023-03-15T07:29:25.924Z,61.65
2023-03-15T07:33:29.632Z,53.55
2023-03-15T07:37:31.448Z,55.85
2023-03-15T07:41:33.301Z,52.08
2023-03-15T07:45:50.206Z,52.00
2023-03-15T07:49:51.977Z,49.78
2023-03-15T07:53:53.790Z,48.28
2023-03-15T07:57:55.530Z,47.67
2023-03-15T08:01:57.280Z,47.33
2023-03-15T08:05:59.081Z,47.30
2023-03-15T08:10:01.795Z,47.03
2023-03-15T08:14:03.537Z,43.40
2023-03-15T08:18:06.558Z,42.65
2023-03-15T08:22:08.380Z,39.05
2023-03-15T08:26:10.113Z,41.08
2023-03-15T08:30:14.167Z,41.20
2023-03-15T08:34:16.310Z,42.28
2023-03-15T08:38:18.097Z,37.10
2023-03-15T08:42:20.013Z,38.42
2023-03-15T08:46:22.273Z,38.13
2023-03-15T08:50:25.855Z,33.97
2023-03-15T08:54:27.698Z,34.20
2023-03-15T08:58:29.540Z,30.13
2023-03-15T09:02:31.278Z,32.60
2023-03-15T09:06:33.054Z,32.47
2023-03-15T09:10:34.873Z,30.85
2023-03-15T09:14:36.760Z,32.47
2023-03-15T09:18:40.652Z,24.88
2023-03-15T09:22:51.829Z,26.42
2023-03-15T09:26:53.649Z,29.52
2023-03-15T09:30:55.388Z,28.92
2023-03-15T09:34:57.390Z,29.25
2023-03-15T09:38:59.555Z,24.55
2023-03-15T09:43:07.055Z,30.13
2023-03-15T09:47:36.925Z,29.80
2023-03-15T09:52:02.900Z,27.90
2023-03-15T09:56:18.867Z,26.15
2023-03-15T10:00:25.981Z,25.83
2023-03-15T10:04:30.864Z,23.60
2023-03-15T10:08:32.804Z,24.10
2023-03-15T10:12:41.524Z,24.90
2023-03-15T10:16:46.938Z,26.23
2023-03-15T10:20:58.998Z,21.23
2023-03-15T10:25:12.019Z,25.63
2023-03-15T10:29:25.747Z,23.83
2023-03-15T10:33:37.513Z,18.63
2023-03-15T10:37:39.269Z,17.88
2023-03-15T10:41:47.437Z,23.17
2023-03-15T10:46:00.638Z,19.60
2023-03-15T10:50:02.388Z,21.98
2023-03-15T10:54:25.103Z,166.40
2023-03-15T10:58:31.579Z,378.73
2023-03-15T11:02:33.484Z,424.55
2023-03-15T11:07:00.778Z,347.73
2023-03-15T11:11:02.548Z,307.75
2023-03-15T11:15:16.263Z,287.92
2023-03-15T11:19:22.305Z,287.25
2023-03-15T11:23:28.967Z,275.80
2023-03-15T11:27:31.960Z,254.63
2023-03-15T11:31:34.273Z,242.63
2023-03-15T11:35:44.520Z,262.33
2023-03-15T11:40:11.585Z,505.35
2023-03-15T11:44:33.792Z,562.63
2023-03-15T11:48:44.391Z,515.35
2023-03-15T11:52:52.977Z,514.33
2023-03-15T11:57:03.503Z,480.77
2023-03-15T12:01:07.254Z,477.60
2023-03-15T12:05:46.858Z,467.77
2023-03-15T12:09:56.369Z,469.48
2023-03-15T12:14:01.132Z,457.30
2023-03-15T12:18:07.021Z,438.17
2023-03-15T12:22:17.578Z,432.42
2023-03-15T12:26:26.550Z,404.25
2023-03-15T12:30:38.569Z,394.65
2023-03-15T12:35:09.034Z,399.95
2023-03-15T12:39:16.643Z,382.15
2023-03-15T12:43:35.614Z,386.70
2023-03-15T12:47:52.427Z,346.45
2023-03-15T12:52:04.772Z,350.48
2023-03-15T12:56:18.716Z,330.67
2023-03-15T13:00:27.538Z,329.35
2023-03-15T13:04:31.029Z,333.33
2023-03-15T13:09:06.821Z,319.63
2023-03-15T13:13:30.236Z,319.88
2023-03-15T13:17:42.592Z,304.30
2023-03-15T13:22:18.303Z,288.17
2023-03-15T13:26:33.223Z,276.48
2023-03-15T13:30:47.208Z,276.40
2023-03-15T13:34:49.987Z,278.63
2023-03-15T13:38:54.843Z,276.90
2023-03-15T13:43:00.940Z,266.05
2023-03-15T13:47:02.650Z,254.45
2023-03-15T13:51:08.339Z,247.00
2023-03-15T13:55:14.502Z,242.73
2023-03-15T13:59:17.690Z,244.95
2023-03-15T14:03:23.050Z,230.15
2023-03-15T14:07:35.619Z,232.25
2023-03-15T14:11:40.943Z,227.93
2023-03-15T14:15:44.390Z,343.90
2023-03-15T14:19:56.887Z,394.15
2023-03-15T14:24:07.044Z,384.15
2023-03-15T14:28:15.263Z,372.30
2023-03-15T14:36:44.710Z,344.17
2023-03-15T14:40:50.106Z,351.13
2023-03-15T14:44:52.362Z,332.02
2023-03-15T14:48:54.116Z,324.52
2023-03-15T14:52:56.811Z,314.92
2023-03-15T14:56:58.570Z,322.92
2023-03-15T15:01:02.860Z,311.17
2023-03-15T15:05:34.490Z,277.02
2023-03-15T15:09:38.451Z,283.88
2023-03-15T15:13:42.540Z,268.52
2023-03-15T15:17:44.398Z,265.27
2023-03-15T15:21:46.239Z,254.15
2023-03-15T15:25:50.678Z,245.55
2023-03-15T15:29:52.477Z,235.63
2023-03-15T15:33:55.773Z,233.30
2023-03-15T15:37:57.665Z,224.20
2023-03-15T15:41:59.410Z,244.13
2023-03-15T15:46:02.015Z,612.92
2023-03-15T15:50:04.126Z,626.03
2023-03-15T15:54:06.164Z,574.83
2023-03-15T15:58:11.969Z,542.22
2023-03-15T16:02:22.334Z,524.60
2023-03-15T16:06:24.394Z,510.27
2023-03-15T16:10:36.032Z,502.30
2023-03-15T16:14:37.771Z,501.95
2023-03-15T16:18:39.481Z,468.15
2023-03-15T16:22:45.433Z,469.35
2023-03-15T16:26:48.429Z,446.60
2023-03-15T16:30:50.327Z,431.55
2023-03-15T16:34:53.451Z,425.50
2023-03-15T16:38:55.634Z,404.10
2023-03-15T16:42:57.715Z,399.75
2023-03-15T16:46:59.396Z,375.75
2023-03-15T16:51:01.065Z,364.08
2023-03-15T16:55:03.020Z,355.85
2023-03-15T16:59:04.973Z,349.52
2023-03-15T17:03:08.251Z,343.15
2023-03-15T17:07:11.737Z,324.35
2023-03-15T17:11:14.003Z,318.45
2023-03-15T17:15:20.387Z,306.10
2023-03-15T17:19:22.270Z,315.23
2023-03-15T17:23:24.494Z,302.23
2023-03-15T17:27:35.461Z,291.00
2023-03-15T17:31:37.898Z,284.40
2023-03-15T17:35:54.173Z,288.55
2023-03-15T17:39:56.914Z,280.73
2023-03-15T17:43:59.270Z,260.20
2023-03-15T17:48:02.110Z,254.52
2023-03-15T17:52:04.815Z,253.15
2023-03-15T17:56:07.436Z,241.60
2023-03-15T18:00:11.362Z,244.35
2023-03-15T18:04:13.873Z,228.68
2023-03-15T18:08:19.747Z,225.98
2023-03-15T18:12:22.376Z,221.60
2023-03-15T18:16:24.675Z,210.85
2023-03-15T18:20:28.212Z,207.57
2023-03-15T18:24:32.035Z,214.75
2023-03-15T18:28:34.099Z,200.77
2023-03-15T18:32:35.945Z,199.25
2023-03-15T18:36:37.724Z,183.90
2023-03-15T18:40:39.600Z,197.73
2023-03-15T18:44:41.457Z,186.30
2023-03-15T18:48:45.456Z,182.38
2023-03-15T18:52:47.536Z,167.43
2023-03-15T18:56:49.659Z,170.82
2023-03-15T19:00:51.496Z,170.18
2023-03-15T19:04:53.573Z,160.50
2023-03-15T19:08:55.481Z,155.32
2023-03-15T19:12:57.201Z,148.32
2023-03-15T19:16:59.877Z,150.55
2023-03-15T19:21:02.648Z,143.10
2023-03-15T19:25:06.157Z,142.35
2023-03-15T19:29:07.968Z,135.68
2023-03-15T19:33:10.196Z,136.88
2023-03-15T19:37:12.048Z,124.50
2023-03-15T19:41:14.565Z,132.27
2023-03-15T19:45:17.673Z,131.05
2023-03-15T19:49:19.664Z,116.55
2023-03-15T19:53:21.474Z,113.68
2023-03-15T19:57:23.253Z,121.93
2023-03-15T20:01:25.071Z,116.82
2023-03-15T20:05:26.933Z,108.97
2023-03-15T20:09:29.293Z,101.07
2023-03-15T20:13:31.750Z,102.75
2023-03-15T20:17:33.428Z,101.90
2023-03-15T20:21:35.992Z,99.97
2023-03-15T20:25:37.693Z,100.47
2023-03-15T20:29:39.410Z,95.90
2023-03-15T20:33:41.881Z,100.13
2023-03-15T20:37:43.715Z,90.90
2023-03-15T20:41:45.457Z,86.88
2023-03-15T20:45:47.336Z,87.05
2023-03-15T20:49:49.063Z,85.43
2023-03-15T20:53:51.065Z,430.27
2023-03-15T20:57:53.546Z,439.30
2023-03-15T21:01:55.846Z,395.60
2023-03-15T21:05:57.943Z,369.00
2023-03-15T21:10:00.552Z,355.13
2023-03-15T21:14:02.789Z,352.65
2023-03-15T21:18:04.882Z,337.63
2023-03-15T21:22:07.181Z,323.60
2023-03-15T21:26:11.449Z,303.48
2023-03-15T21:30:14.326Z,284.90
2023-03-15T21:34:16.421Z,286.02
2023-03-15T21:38:18.568Z,640.85
2023-03-15T21:42:20.878Z,695.72
2023-03-15T21:46:24.103Z,625.42
2023-03-15T21:50:26.877Z,572.60
2023-03-15T21:54:29.509Z,574.58
2023-03-15T21:58:32.024Z,551.97
2023-03-15T22:02:33.801Z,533.53
2023-03-15T22:06:35.567Z,520.20
2023-03-15T22:10:37.356Z,502.48
2023-03-15T22:14:40.117Z,496.70
2023-03-15T22:18:41.876Z,476.77
2023-03-15T22:22:45.313Z,458.13
2023-03-15T22:26:47.058Z,439.77
2023-03-15T22:30:50.086Z,556.85
2023-03-15T22:34:51.781Z,629.65
2023-03-15T22:38:53.508Z,591.38
2023-03-15T22:42:57.308Z,576.45
2023-03-15T22:46:59.065Z,553.45
2023-03-15T22:51:03.072Z,508.92
2023-03-15T22:55:06.486Z,487.90
2023-03-15T22:59:08.275Z,455.75
2023-03-15T23:03:09.997Z,420.52
2023-03-15T23:07:12.597Z,394.05
2023-03-15T23:11:14.487Z,376.65
2023-03-15T23:15:16.265Z,576.28
2023-03-15T23:19:17.992Z,599.03
2023-03-15T23:23:19.912Z,574.38
2023-03-15T23:27:26.166Z,542.25
2023-03-15T23:31:28.103Z,512.67
2023-03-15T23:35:31.259Z,485.77
2023-03-15T23:39:33.069Z,453.92
2023-03-15T23:43:34.847Z,429.77
2023-03-15T23:47:36.641Z,402.48
2023-03-15T23:51:38.846Z,368.13
2023-03-15T23:55:41.343Z,333.60
2023-03-15T23:59:43.531Z,329.00
